Time;durP1;ratioP1;P1;durP2;ratioP2;P2;SDS_P1;SDS_P2;PMS_P1;PMS_P2;Temp;Humidity;BMP_temperature;BMP_pressure;BME280_temperature;BME280_humidity;BME280_pressure;Samples;Min_cycle;Max_cycle;Signal;HPM_P1;HPM_P2
2022/03/02 00:00:28;;;;;;;24.17;22.07;;;;;;;22.94;25.74;95458.16;6159664;28;102921;-55
2022/03/02 00:03:30;;;;;;;24.10;22.10;;;;;;;22.95;25.61;95462.41;6154736;28;103409;-54
2022/03/02 00:06:32;;;;;;;23.63;21.67;;;;;;;22.95;25.94;95454.41;6160182;28;103944;-55
2022/03/02 00:09:34;;;;;;;24.13;22.13;;;;;;;22.95;25.14;95447.22;6159108;28;104361;-54
2022/03/02 00:12:36;;;;;;;25.87;23.67;;;;;;;22.94;25.45;95447.50;6160068;28;102918;-54
2022/03/02 00:15:38;;;;;;;24.63;22.53;;;;;;;22.93;25.43;95444.06;6154136;28;104293;-55
2022/03/02 00:18:39;;;;;;;24.97;22.77;;;;;;;22.95;25.26;95443.75;6160020;28;104318;-54
2022/03/02 00:21:41;;;;;;;25.73;23.43;;;;;;;22.94;25.72;95442.97;6159372;28;104023;-55
2022/03/02 00:24:43;;;;;;;26.83;24.57;;;;;;;22.91;25.57;95429.44;6155373;28;103856;-55
2022/03/02 00:27:45;;;;;;;24.70;22.70;;;;;;;22.94;25.57;95431.53;6159533;28;103702;-55
2022/03/02 00:30:49;;;;;;;25.13;23.03;;;;;;;22.94;25.83;95432.31;6158930;28;103080;-55
2022/03/02 00:33:51;;;;;;;26.20;24.00;;;;;;;22.92;25.30;95426.50;6159241;28;104059;-55
2022/03/02 00:36:53;;;;;;;25.70;23.50;;;;;;;22.92;25.20;95423.81;6152910;28;104202;-55
2022/03/02 00:39:54;;;;;;;25.53;23.43;;;;;;;22.92;25.16;95418.50;6159162;28;104194;-55
2022/03/02 00:42:56;;;;;;;26.00;23.80;;;;;;;22.94;25.43;95415.53;6158589;28;103381;-55
2022/03/02 00:45:58;;;;;;;24.83;22.77;;;;;;;22.94;25.17;95412.88;6159328;28;104217;-54
2022/03/02 00:49:02;;;;;;;25.20;23.10;;;;;;;22.93;25.42;95409.41;6154311;28;103301;-55
2022/03/02 00:52:04;;;;;;;25.00;22.80;;;;;;;22.94;25.30;95402.22;6158572;28;103591;-54
2022/03/02 00:55:06;;;;;;;25.33;23.23;;;;;;;22.91;25.50;95397.47;6158694;28;103071;-54
2022/03/02 00:58:08;;;;;;;25.60;23.50;;;;;;;22.91;24.97;95392.94;6153093;28;103104;-54
2022/03/02 01:01:10;;;;;;;24.80;22.70;;;;;;;22.93;25.01;95387.31;6158686;28;104247;-54
2022/03/02 01:04:12;;;;;;;25.77;23.67;;;;;;;22.92;24.80;95396.38;6158837;28;103464;-55
2022/03/02 01:07:13;;;;;;;24.60;22.60;;;;;;;22.91;24.97;95390.28;6158594;28;103857;-55
2022/03/02 01:10:16;;;;;;;25.07;22.97;;;;;;;22.91;25.10;95387.59;6153313;28;103291;-54
2022/03/02 01:13:18;;;;;;;24.90;22.70;;;;;;;22.91;25.01;95378.81;6158731;28;103095;-55
2022/03/02 01:16:20;;;;;;;24.73;22.63;;;;;;;22.91;25.11;95374.28;6158450;28;104237;-55
2022/03/02 01:19:22;;;;;;;24.60;22.50;;;;;;;22.90;24.83;95372.72;6154510;28;104053;-54
2022/03/02 01:22:23;;;;;;;24.87;22.87;;;;;;;22.90;24.88;95367.38;6157992;28;103523;-55
2022/03/02 01:25:25;;;;;;;24.10;22.10;;;;;;;22.89;25.29;95371.13;6158273;28;104454;-55
2022/03/02 01:28:27;;;;;;;25.07;23.07;;;;;;;22.88;24.73;95361.56;6158577;28;104612;-55
2022/03/02 01:31:29;;;;;;;25.70;23.60;;;;;;;22.90;24.71;95363.94;6152073;28;105081;-55
2022/03/02 01:34:31;;;;;;;25.03;22.90;;;;;;;22.90;24.83;95366.59;6158297;28;103196;-55
2022/03/02 01:37:33;;;;;;;24.70;22.63;;;;;;;22.89;25.03;95357.03;6158200;28;103345;-55
2022/03/02 01:40:35;;;;;;;24.97;22.93;;;;;;;22.89;24.93;95363.13;6157551;28;103093;-55
2022/03/02 01:43:36;;;;;;;24.57;22.50;;;;;;;22.89;24.73;95359.69;6153043;28;103319;-55
2022/03/02 01:46:38;;;;;;;24.80;22.80;;;;;;;22.88;25.10;95350.91;6158774;28;103864;-54
2022/03/02 01:49:40;;;;;;;24.33;22.23;;;;;;;22.88;24.86;95353.56;6157937;28;103979;-55
2022/03/02 01:52:42;;;;;;;24.00;22.00;;;;;;;22.89;24.75;95354.34;6134223;28;103394;-54
2022/03/02 01:55:44;;;;;;;23.77;21.77;;;;;;;22.88;24.73;95353.56;6157351;28;103235;-55
2022/03/02 01:58:47;;;;;;;23.70;21.83;;;;;;;22.89;24.77;95349.81;6157909;28;104178;-55
2022/03/02 02:01:49;;;;;;;23.37;21.47;;;;;;;22.89;24.72;95341.81;6158091;28;104009;-55
2022/03/02 02:04:53;;;;;;;23.77;21.83;;;;;;;22.90;24.71;95337.28;6155582;28;103139;-54
2022/03/02 02:07:55;;;;;;;24.53;22.53;;;;;;;22.88;24.78;95337.59;6162171;28;103604;-55
2022/03/02 02:10:59;;;;;;;23.70;21.70;;;;;;;22.88;24.78;95332.25;6162229;28;104077;-55
2022/03/02 02:14:01;;;;;;;23.67;21.67;;;;;;;22.89;24.85;95331.16;6161738;28;104252;-55
2022/03/02 02:17:03;;;;;;;23.00;21.20;;;;;;;22.87;24.77;95317.34;6157616;28;103706;-55
2022/03/02 02:20:06;;;;;;;22.80;20.90;;;;;;;22.88;24.55;95326.13;6161434;28;102977;-55
2022/03/02 02:23:08;;;;;;;23.20;21.13;;;;;;;22.88;24.42;95323.47;6160248;28;104143;-54
2022/03/02 02:26:10;;;;;;;22.30;20.50;;;;;;;22.89;24.55;95325.84;6156415;28;102956;-54
2022/03/02 02:29:12;;;;;;;25.30;23.20;;;;;;;22.92;24.84;95335.09;6161174;28;103129;-55
2022/03/02 02:32:14;;;;;;;23.13;21.23;;;;;;;22.88;24.56;95331.47;6161593;28;104276;-54
2022/03/02 02:35:16;;;;;;;25.00;22.90;;;;;;;22.87;24.51;95330.69;6161218;28;103093;-55
2022/03/02 02:38:21;;;;;;;25.63;23.47;;;;;;;22.87;24.77;95330.69;6156284;28;104528;-55
2022/03/02 02:41:23;;;;;;;24.37;22.27;;;;;;;22.86;24.44;95329.09;6161744;28;104348;-56
2022/03/02 02:44:25;;;;;;;24.00;22.07;;;;;;;22.87;24.44;95325.34;6160667;28;103146;-55
2022/03/02 02:47:27;;;;;;;25.40;23.10;;;;;;;22.86;24.66;95323.78;6157263;28;103965;-55
2022/03/02 02:50:32;;;;;;;23.87;21.90;;;;;;;22.86;24.57;95325.66;6160796;28;103931;-55
2022/03/02 02:53:34;;;;;;;24.33;22.13;;;;;;;22.85;25.04;95316.88;6160516;28;102860;-55
2022/03/02 02:56:36;;;;;;;25.07;23.07;;;;;;;22.86;24.73;95322.97;6157080;28;103928;-55
2022/03/02 02:59:38;;;;;;;23.40;21.50;;;;;;;22.86;24.58;95328.31;6146982;28;103944;-55
2022/03/02 03:02:40;;;;;;;23.20;21.20;;;;;;;22.85;24.73;95327.53;6157885;28;103122;-54
2022/03/02 03:05:44;;;;;;;24.17;22.23;;;;;;;22.84;24.66;95325.91;6161644;28;103113;-56
2022/03/02 03:08:46;;;;;;;23.00;21.10;;;;;;;22.86;24.64;95325.66;6161269;28;104228;-56
2022/03/02 03:11:48;;;;;;;22.23;20.47;;;;;;;22.86;24.27;95320.31;6155837;28;103606;-55
2022/03/02 03:14:50;;;;;;;23.50;21.60;;;;;;;22.85;24.30;95321.41;6160152;28;103388;-55
2022/03/02 03:17:52;;;;;;;22.93;21.03;;;;;;;22.85;24.60;95321.41;6160595;28;102994;-56
2022/03/02 03:20:54;;;;;;;22.73;20.83;;;;;;;22.87;24.49;95329.88;6154860;28;104224;-55
2022/03/02 03:23:56;;;;;;;22.40;20.60;;;;;;;22.85;24.21;95327.53;6160564;28;103792;-55
2022/03/02 03:26:57;;;;;;;21.00;19.30;;;;;;;22.85;24.27;95324.88;6161006;28;103324;-55
2022/03/02 03:29:59;;;;;;;20.87;19.13;;;;;;;22.85;24.47;95330.19;6159448;28;103158;-55
2022/03/02 03:33:04;;;;;;;20.63;18.97;;;;;;;22.85;24.52;95327.53;6151970;28;103100;-55
2022/03/02 03:36:06;;;;;;;20.60;18.87;;;;;;;22.84;24.48;95323.25;6155879;28;103013;-56
2022/03/02 03:39:09;;;;;;;19.90;18.10;;;;;;;22.84;24.27;95320.59;6160287;28;103016;-55
2022/03/02 03:42:10;;;;;;;20.30;18.60;;;;;;;22.85;24.01;95321.41;6160574;28;103112;-55
2022/03/02 03:45:13;;;;;;;19.37;17.87;;;;;;;22.85;24.37;95327.53;6154546;28;104351;-55
2022/03/02 03:48:16;;;;;;;19.07;17.57;;;;;;;22.84;24.09;95325.13;6160758;28;104252;-55
2022/03/02 03:51:18;;;;;;;18.97;17.37;;;;;;;22.84;24.37;95317.94;6159554;28;102974;-55
2022/03/02 03:54:20;;;;;;;18.70;17.20;;;;;;;22.85;24.36;95311.53;6155734;28;104472;-55
2022/03/02 03:57:22;;;;;;;17.93;16.53;;;;;;;22.84;24.26;95312.59;6140456;28;102963;-55
2022/03/02 04:00:23;;;;;;;17.53;16.13;;;;;;;22.83;24.06;95311.03;6158984;28;103920;-55
2022/03/02 04:03:25;;;;;;;16.80;15.50;;;;;;;22.84;24.00;95312.59;6154485;28;104563;-55
2022/03/02 04:06:27;;;;;;;20.13;18.53;;;;;;;22.86;24.45;95312.31;6152560;28;103409;-54
2022/03/02 04:09:29;;;;;;;16.20;15.00;;;;;;;22.86;24.19;95317.66;6159798;28;103575;-55
2022/03/02 04:12:31;;;;;;;16.83;15.53;;;;;;;22.86;24.46;95317.66;6159396;28;103376;-55
2022/03/02 04:15:33;;;;;;;16.23;14.97;;;;;;;22.87;24.31;95313.91;6155064;28;105470;-55
2022/03/02 04:18:35;;;;;;;15.40;14.10;;;;;;;22.86;24.32;95312.31;6159169;28;102900;-54
2022/03/02 04:21:37;;;;;;;15.33;14.13;;;;;;;22.86;24.31;95307.00;6159686;28;103894;-54
2022/03/02 04:24:38;;;;;;;14.93;13.73;;;;;;;22.81;24.12;95310.50;6157766;28;102976;-56
2022/03/02 04:27:40;;;;;;;15.27;13.97;;;;;;;22.71;24.67;95310.72;6152877;28;102872;-56
2022/03/02 04:30:42;;;;;;;14.70;13.47;;;;;;;22.68;24.78;95314.78;6158219;28;102807;-56
2022/03/02 04:33:44;;;;;;;13.97;12.70;;;;;;;22.65;24.72;95306.56;6150466;28;104308;-56
2022/03/02 04:36:46;;;;;;;14.47;13.30;;;;;;;22.65;24.45;95314.56;6159132;28;103228;-56
2022/03/02 04:39:48;;;;;;;13.33;12.33;;;;;;;22.62;24.39;95307.16;6150999;28;103378;-56
2022/03/02 04:42:50;;;;;;;14.90;13.50;;;;;;;22.62;24.39;95312.47;6158767;28;103391;-56
2022/03/02 04:45:52;;;;;;;13.70;12.50;;;;;;;22.69;25.56;95303.03;6154859;28;104174;-56
2022/03/02 04:48:53;;;;;;;13.10;12.00;;;;;;;22.72;25.30;95301.66;6153868;28;103320;-60
2022/03/02 04:51:55;;;;;;;13.77;12.33;;;;;;;22.72;24.69;95297.09;6149954;28;103005;-56
2022/03/02 04:55:07;;;;;;;13.50;12.40;;;;;;;22.75;24.73;95295.72;6149325;28;104555;-56
2022/03/02 04:58:08;;;;;;;13.80;12.60;;;;;;;22.78;25.29;95290.59;6156248;28;102958;-56
2022/03/02 05:01:10;;;;;;;16.20;14.90;;;;;;;22.87;25.39;95292.59;6149536;28;104208;-56
2022/03/02 05:04:12;;;;;;;16.10;14.80;;;;;;;22.91;25.33;95289.03;6151289;28;104212;-56
2022/03/02 05:07:14;;;;;;;14.87;13.67;;;;;;;22.96;25.62;95283.59;6153614;28;104229;-55
2022/03/02 05:10:18;;;;;;;16.00;14.40;;;;;;;22.95;25.20;95292.66;6156530;28;103459;-56
2022/03/02 05:13:20;;;;;;;16.60;15.00;;;;;;;22.97;25.27;95290.50;6148019;28;103916;-56
2022/03/02 05:16:23;;;;;;;16.40;14.50;;;;;;;22.85;25.94;95300.09;6142944;28;103027;-56
2022/03/02 05:19:25;;;;;;;13.27;12.17;;;;;;;22.73;24.51;95287.25;6155409;28;104044;-56
2022/03/02 05:22:27;;;;;;;13.10;11.90;;;;;;;22.71;24.92;95284.09;6153807;28;104091;-56
2022/03/02 05:25:29;;;;;;;13.20;12.10;;;;;;;22.69;24.99;95291.59;6142944;28;103292;-56
2022/03/02 05:28:31;;;;;;;14.37;12.17;;;;;;;22.68;25.73;95296.13;6157778;28;103570;-56
2022/03/02 05:31:33;;;;;;;14.53;13.13;;;;;;;22.67;25.45;95296.41;6156730;28;103058;-56
2022/03/02 05:34:35;;;;;;;12.30;11.40;;;;;;;22.65;25.18;95294.03;6151788;28;103089;-56
2022/03/02 05:37:42;;;;;;;13.60;12.50;;;;;;;22.64;25.42;95294.34;6156992;28;103071;-56
2022/03/02 05:40:45;;;;;;;13.60;12.33;;;;;;;22.62;25.68;95293.84;6160597;28;104059;-56
2022/03/02 05:43:47;;;;;;;13.13;12.03;;;;;;;22.62;25.79;95296.50;6157227;28;103440;-56
2022/03/02 05:46:49;;;;;;;14.27;13.07;;;;;;;22.61;25.76;95290.38;6163192;28;103937;-56
2022/03/02 05:49:51;;;;;;;13.73;12.53;;;;;;;22.63;25.87;95290.09;6162529;28;102866;-56
2022/03/02 05:52:53;;;;;;;13.50;12.40;;;;;;;22.64;25.67;95297.00;6145913;28;102837;-57
2022/03/02 05:55:55;;;;;;;14.00;12.80;;;;;;;22.68;25.89;95290.00;6158239;28;104145;-55
2022/03/02 05:58:58;;;;;;;13.73;12.60;;;;;;;22.81;25.75;95291.84;6163452;28;106050;-55
2022/03/02 06:02:00;;;;;;;13.40;12.10;;;;;;;22.89;25.54;95293.88;6163441;28;104936;-55
2022/03/02 06:05:10;;;;;;;12.47;11.43;;;;;;;22.95;24.99;95298.00;6162798;28;104075;-54
2022/03/02 06:08:12;;;;;;;13.07;12.07;;;;;;;22.97;24.84;95300.34;6158014;28;104107;-54
2022/03/02 06:11:14;;;;;;;11.83;10.83;;;;;;;23.00;25.01;95297.88;6163168;28;104134;-54
2022/03/02 06:14:16;;;;;;;12.27;11.37;;;;;;;23.02;25.02;95302.94;6163400;28;103073;-54
2022/03/02 06:17:18;;;;;;;11.70;10.80;;;;;;;23.03;24.80;95299.97;6157304;28;103146;-54
2022/03/02 06:20:21;;;;;;;11.53;10.63;;;;;;;23.03;24.79;95297.31;6162647;28;103080;-54
2022/03/02 06:23:23;;;;;;;11.63;10.70;;;;;;;23.05;24.84;95307.66;6162849;28;102983;-54
2022/03/02 06:26:26;;;;;;;10.97;10.13;;;;;;;23.04;24.44;95300.75;6162233;28;103092;-54
2022/03/02 06:29:28;;;;;;;10.83;10.00;;;;;;;23.04;24.97;95296.22;6158066;28;103677;-54
2022/03/02 06:32:31;;;;;;;11.50;10.60;;;;;;;23.04;24.58;95293.56;6162522;28;103989;-54
2022/03/02 06:35:33;;;;;;;10.13;9.40;;;;;;;23.06;24.70;95288.72;6162615;28;104123;-54
2022/03/02 06:38:35;;;;;;;10.10;9.30;;;;;;;23.05;24.92;95287.13;6160249;28;102973;-54
2022/03/02 06:42:09;;;;;;;10.00;9.20;;;;;;;23.06;24.82;95286.03;6160428;28;103339;-54
2022/03/02 06:45:17;;;;;;;10.20;9.40;;;;;;;23.07;24.96;95284.16;6156120;28;104058;-53
2022/03/02 06:48:22;;;;;;;9.73;8.93;;;;;;;23.10;24.70;95295.00;6161946;28;103160;-54
2022/03/02 06:51:24;;;;;;;9.60;8.90;;;;;;;23.09;24.64;95290.78;6157061;28;103223;-54
2022/03/02 06:54:30;;;;;;;10.30;9.50;;;;;;;23.11;24.52;95293.13;6162853;28;103127;-58
2022/03/02 06:57:32;;;;;;;10.10;9.30;;;;;;;23.06;24.87;95295.91;6145009;28;103125;-54
2022/03/02 07:00:35;;;;;;;10.50;9.60;;;;;;;23.07;25.08;95289.50;6160765;28;102998;-54
2022/03/02 07:03:45;;;;;;;9.70;8.90;;;;;;;23.09;24.68;95282.78;6158591;28;103067;-54
2022/03/02 07:06:47;;;;;;;9.90;9.07;;;;;;;23.09;24.61;95280.13;6162475;28;102956;-54
2022/03/02 07:09:50;;;;;;;9.10;8.40;;;;;;;23.09;24.53;95277.44;6162185;28;103220;-54
2022/03/02 07:12:52;;;;;;;8.80;8.20;;;;;;;23.10;24.66;95271.03;6157124;28;103380;-54
2022/03/02 07:15:53;;;;;;;9.30;8.47;;;;;;;23.09;24.85;95269.44;6162054;28;103074;-54
2022/03/02 07:18:55;;;;;;;8.60;8.00;;;;;;;23.10;24.46;95270.25;6161124;28;102984;-54
2022/03/02 07:22:07;;;;;;;9.43;8.63;;;;;;;23.11;24.94;95275.25;6162045;28;103575;-54
2022/03/02 07:25:29;;;;;;;8.47;7.77;;;;;;;23.11;24.84;95267.28;6156543;28;102938;-54
2022/03/02 07:28:38;;;;;;;8.50;7.90;;;;;;;23.12;24.55;95268.06;6161479;28;102874;-54
2022/03/02 07:31:41;;;;;;;8.53;7.90;;;;;;;23.14;24.70;95265.09;6161842;28;104148;-54
2022/03/02 07:34:55;;;;;;;8.50;7.87;;;;;;;23.17;24.26;95267.16;6156105;28;102984;-54
2022/03/02 07:37:57;;;;;;;8.40;7.80;;;;;;;23.18;24.91;95260.72;6161499;28;102983;-54
2022/03/02 07:40:59;;;;;;;8.20;7.60;;;;;;;23.20;24.57;95255.91;6161034;28;104001;-54
2022/03/02 07:44:02;;;;;;;8.63;7.87;;;;;;;23.21;24.28;95254.81;6161785;28;104075;-54
2022/03/02 07:47:04;;;;;;;8.97;8.27;;;;;;;23.21;24.59;95255.59;6139256;28;103874;-54
2022/03/02 07:50:07;;;;;;;8.30;7.70;;;;;;;23.23;24.46;95256.09;6161983;28;103083;-54
2022/03/02 07:53:15;;;;;;;7.97;7.27;;;;;;;23.23;24.56;95253.44;6161427;28;102980;-54
2022/03/02 07:56:18;;;;;;;7.70;7.10;;;;;;;23.23;24.50;95257.97;6155544;28;103069;-53
2022/03/02 07:59:21;;;;;;;8.10;7.50;;;;;;;23.23;24.66;95257.97;6160838;28;103039;-53
2022/03/02 08:02:24;;;;;;;7.80;7.20;;;;;;;23.23;24.13;95256.09;6159527;28;102936;-53
2022/03/02 08:05:27;;;;;;;8.00;7.40;;;;;;;23.23;24.34;95255.31;6161351;28;104079;-54
2022/03/02 08:08:28;;;;;;;8.43;7.83;;;;;;;23.23;24.48;95252.63;6155800;28;102984;-54
2022/03/02 08:11:37;;;;;;;8.07;7.47;;;;;;;23.22;24.55;95253.72;6160176;28;103003;-54
2022/03/02 08:14:40;;;;;;;8.17;7.50;;;;;;;23.22;24.26;95251.06;6161431;28;103996;-54
2022/03/02 08:17:43;;;;;;;8.33;7.73;;;;;;;23.22;24.03;95246.53;6159353;28;103101;-53
2022/03/02 08:20:51;;;;;;;8.10;7.43;;;;;;;23.22;24.32;95243.06;6159069;28;103303;-54
2022/03/02 08:23:56;;;;;;;8.27;7.67;;;;;;;23.21;24.16;95247.63;6161141;28;103547;-53
2022/03/02 08:27:00;;;;;;;7.87;7.27;;;;;;;23.23;24.59;95244.66;6160286;28;103233;-52
2022/03/02 08:30:06;;;;;;;8.10;7.50;;;;;;;23.23;24.55;95240.09;6156512;28;105453;-54
2022/03/02 08:33:09;;;;;;;7.30;6.80;;;;;;;23.22;23.97;95235.06;6160638;28;103838;-54
2022/03/02 08:36:12;;;;;;;7.97;7.37;;;;;;;23.23;24.04;95239.31;6127741;28;103191;-55
2022/03/02 08:39:14;;;;;;;7.47;6.87;;;;;;;23.21;24.50;95220.97;6160530;28;104120;-54
2022/03/02 08:42:16;;;;;;;10.40;9.60;;;;;;;23.16;24.49;95218.38;6155258;28;104365;-57
2022/03/02 08:45:19;;;;;;;10.20;9.33;;;;;;;23.09;25.41;95221.47;6160385;28;102989;-57
2022/03/02 08:48:21;;;;;;;10.80;10.00;;;;;;;23.06;25.34;95221.28;6159328;28;102962;-56
2022/03/02 08:51:25;;;;;;;10.63;9.83;;;;;;;23.05;25.55;95225.84;6136464;28;103733;-57
2022/03/02 08:54:43;;;;;;;10.57;9.77;;;;;;;23.04;25.77;95212.81;6160452;28;103235;-57
2022/03/02 08:57:45;;;;;;;10.60;9.70;;;;;;;23.05;26.08;95217.06;6160549;28;103931;-57
2022/03/02 09:00:51;;;;;;;10.57;9.77;;;;;;;23.06;25.79;95213.31;6160104;28;103372;-57
2022/03/02 09:03:57;;;;;;;11.67;10.57;;;;;;;23.05;25.96;95212.50;6137125;28;105117;-57
2022/03/02 09:07:01;;;;;;;12.30;11.30;;;;;;;23.06;26.35;95211.44;6159529;28;102918;-57
2022/03/02 09:10:04;;;;;;;12.63;11.60;;;;;;;23.09;26.39;95202.03;6158851;28;102990;-57
2022/03/02 09:13:06;;;;;;;11.57;10.77;;;;;;;23.09;26.08;95194.81;6154347;28;103330;-57
2022/03/02 09:16:10;;;;;;;12.20;11.10;;;;;;;23.10;26.03;95196.41;6159197;28;104256;-58
2022/03/02 09:19:12;;;;;;;12.83;11.83;;;;;;;23.11;26.34;95191.84;6159901;28;103976;-57
2022/03/02 09:22:15;;;;;;;12.00;11.00;;;;;;;23.11;26.48;95186.53;6158947;28;103225;-57
2022/03/02 09:25:18;;;;;;;12.70;11.60;;;;;;;23.14;26.10;95177.94;6153693;28;103605;-54
2022/03/02 09:28:21;;;;;;;11.67;10.77;;;;;;;23.27;25.83;95179.75;6159970;28;104164;-54
2022/03/02 09:31:23;;;;;;;12.33;11.33;;;;;;;23.41;25.71;95179.69;6158144;28;103007;-54
2022/03/02 09:34:27;;;;;;;12.23;11.33;;;;;;;23.44;25.74;95179.06;6159830;28;102768;-54
2022/03/02 09:37:37;;;;;;;11.73;10.83;;;;;;;23.45;25.72;95175.31;6154263;28;103307;-54
2022/03/02 09:40:43;;;;;;;11.50;10.60;;;;;;;23.50;25.76;95166.41;6158974;28;103835;-54
2022/03/02 09:43:50;;;;;;;11.17;10.27;;;;;;;23.48;25.42;95163.25;6159823;28;103965;-54
2022/03/02 09:46:57;;;;;;;11.90;10.90;;;;;;;23.45;25.64;95166.53;6153670;28;103059;-55
2022/03/02 09:50:02;;;;;;;11.17;10.30;;;;;;;23.47;25.62;95162.47;6139691;28;103405;-54
2022/03/02 09:53:12;;;;;;;11.17;10.27;;;;;;;23.56;25.33;95171.31;6116079;28;102976;-54
2022/03/02 09:56:15;;;;;;;10.77;9.87;;;;;;;23.53;25.33;95165.81;6135070;28;103352;-55
2022/03/02 09:59:18;;;;;;;10.87;10.07;;;;;;;23.52;25.12;95157.03;6129340;28;104147;-54
2022/03/02 10:02:40;;;;;;;10.83;10.03;;;;;;;23.49;25.22;95154.94;6134267;28;103607;-54
2022/03/02 10:05:48;;;;;;;10.87;9.97;;;;;;;23.47;25.00;95151.78;6134105;28;103007;-54
2022/03/02 10:08:54;;;;;;;10.10;9.40;;;;;;;23.52;24.98;95143.69;6128884;28;102952;-54
2022/03/02 10:11:57;;;;;;;11.13;10.03;;;;;;;23.51;25.21;95144.75;6134700;28;102714;-54
2022/03/02 10:15:00;;;;;;;10.03;9.33;;;;;;;23.61;25.15;95135.75;6134068;28;104380;-54
2022/03/02 10:18:03;;;;;;;10.50;9.70;;;;;;;23.64;25.01;95127.13;6134786;28;104813;-54
2022/03/02 10:21:05;;;;;;;9.93;9.13;;;;;;;23.60;24.98;95129.63;6129637;28;103963;-54
2022/03/02 10:24:14;;;;;;;10.47;9.67;;;;;;;23.64;24.62;95135.91;6134167;28;104415;-54
2022/03/02 10:27:33;;;;;;;10.17;9.30;;;;;;;23.64;25.01;95122.59;6138531;28;103937;-54
2022/03/02 10:30:40;;;;;;;9.80;9.10;;;;;;;23.65;25.08;95116.16;6132622;28;103342;-54
2022/03/02 10:33:47;;;;;;;9.53;8.83;;;;;;;23.66;25.07;95115.06;6138637;28;103990;-54
2022/03/02 10:37:02;;;;;;;9.43;8.73;;;;;;;23.68;24.80;95101.41;6138912;28;103478;-55
2022/03/02 10:40:12;;;;;;;9.73;8.93;;;;;;;23.69;25.10;95103.00;6137330;28;103246;-54
2022/03/02 10:43:21;;;;;;;9.37;8.57;;;;;;;23.72;24.94;95089.06;6133356;28;103986;-54
2022/03/02 10:46:25;;;;;;;9.50;8.73;;;;;;;23.74;24.60;95091.41;6137560;28;103999;-54
2022/03/02 10:49:29;;;;;;;9.10;8.40;;;;;;;23.73;25.12;95082.63;6153331;28;102961;-55
2022/03/02 10:52:36;;;;;;;9.50;8.80;;;;;;;23.74;24.60;95075.41;6156605;28;103036;-55
2022/03/02 10:55:42;;;;;;;8.90;8.20;;;;;;;23.74;24.95;95070.84;6162043;28;102973;-54
2022/03/02 10:58:48;;;;;;;9.70;8.97;;;;;;;23.72;25.00;95065.03;6162174;28;103128;-54
2022/03/02 11:01:52;;;;;;;9.17;8.37;;;;;;;23.74;24.78;95059.38;6161827;28;104102;-54
2022/03/02 11:04:56;;;;;;;9.77;8.97;;;;;;;23.70;25.01;95059.22;6140119;28;103820;-54
2022/03/02 11:07:58;;;;;;;9.00;8.30;;;;;;;23.69;24.75;95050.44;6144646;28;103922;-54
2022/03/02 11:11:01;;;;;;;9.60;8.90;;;;;;;23.70;25.04;95053.91;6161380;28;102957;-54
2022/03/02 11:14:04;;;;;;;8.87;8.17;;;;;;;23.67;25.08;95044.59;6157873;28;103370;-55
2022/03/02 11:17:16;;;;;;;8.37;7.77;;;;;;;23.65;25.07;95044.13;6160505;28;104042;-55
2022/03/02 11:20:28;;;;;;;9.20;8.50;;;;;;;23.64;24.63;95037.22;6162252;28;103273;-55
2022/03/02 11:23:41;;;;;;;9.47;8.77;;;;;;;23.62;25.10;95028.75;6161062;28;103103;-55
2022/03/02 11:26:44;;;;;;;9.10;8.40;;;;;;;23.61;24.84;95016.50;6156637;28;104056;-55
2022/03/02 11:29:45;;;;;;;8.70;8.10;;;;;;;23.60;24.91;95006.94;6160826;28;104556;-54
2022/03/02 11:32:47;;;;;;;8.27;7.67;;;;;;;23.61;25.17;95010.38;6160865;28;103952;-54
2022/03/02 11:35:52;;;;;;;8.60;7.90;;;;;;;23.59;24.78;95005.38;6161024;28;103032;-54
2022/03/02 11:38:58;;;;;;;8.27;7.67;;;;;;;23.56;25.04;94994.50;6156033;28;102868;-54
2022/03/02 11:42:03;;;;;;;8.07;7.47;;;;;;;23.56;25.21;94992.63;6161678;28;104309;-55
2022/03/02 11:45:07;;;;;;;8.60;8.00;;;;;;;23.54;25.05;94989.50;6160524;28;104278;-54
2022/03/02 11:48:15;;;;;;;8.73;8.10;;;;;;;23.53;24.96;94990.59;6155866;28;103553;-55
2022/03/02 11:51:23;;;;;;;8.97;8.27;;;;;;;23.50;25.15;94979.72;6160413;28;103017;-55
2022/03/02 11:54:49;;;;;;;8.37;7.77;;;;;;;23.51;24.98;94971.41;6161334;28;103953;-55
2022/03/02 11:57:53;;;;;;;7.50;7.00;;;;;;;23.50;25.28;94969.06;6161040;28;103928;-55
2022/03/02 12:01:05;;;;;;;8.70;7.90;;;;;;;23.52;24.84;94966.91;6155173;28;103722;-55
2022/03/02 12:04:08;;;;;;;8.50;7.80;;;;;;;23.56;25.13;94959.84;6161108;28;103471;-54
2022/03/02 12:07:10;;;;;;;7.13;6.63;;;;;;;23.59;25.04;94961.91;6160633;28;103054;-54
2022/03/02 12:10:28;;;;;;;8.40;7.80;;;;;;;23.63;24.97;94952.19;6156113;28;104146;-55
2022/03/02 12:13:30;;;;;;;8.03;7.43;;;;;;;23.63;24.81;94947.63;6160292;28;103992;-55
2022/03/02 12:16:52;;;;;;;8.10;7.40;;;;;;;23.69;24.70;94941.06;6160895;28;102917;-54
2022/03/02 12:19:59;;;;;;;8.23;7.63;;;;;;;23.68;24.82;94939.50;6160630;28;102994;-55
2022/03/02 12:23:01;;;;;;;7.67;7.07;;;;;;;23.69;24.60;94940.28;6155502;28;103167;-55
2022/03/02 12:26:05;;;;;;;8.30;7.60;;;;;;;23.69;24.70;94935.75;6160496;28;102983;-54
2022/03/02 12:29:10;;;;;;;8.60;8.00;;;;;;;23.70;25.01;94933.84;6160103;28;102967;-54
2022/03/02 12:32:17;;;;;;;7.27;6.67;;;;;;;23.71;24.61;94927.41;6154687;28;103940;-54
2022/03/02 12:35:23;;;;;;;7.40;6.90;;;;;;;23.70;24.83;94931.97;6160423;28;102839;-54
2022/03/02 12:38:24;;;;;;;7.50;7.00;;;;;;;23.67;24.90;94921.13;6160136;28;104029;-54
2022/03/02 12:41:26;;;;;;;8.07;7.47;;;;;;;23.67;24.64;94921.91;6160604;28;103972;-54
2022/03/02 12:44:29;;;;;;;7.50;6.90;;;;;;;23.66;24.71;94917.66;6153977;28;102984;-53
2022/03/02 12:47:32;;;;;;;7.53;7.00;;;;;;;23.67;24.53;94921.91;6159175;28;102940;-54
2022/03/02 12:50:34;;;;;;;7.57;6.97;;;;;;;23.69;24.37;94917.06;6135223;28;104434;-54
2022/03/02 12:53:37;;;;;;;7.30;6.80;;;;;;;23.64;24.93;94906.53;6130443;28;104034;-55
2022/03/02 12:56:39;;;;;;;7.80;7.20;;;;;;;23.66;24.79;94904.31;6135867;28;103399;-54
2022/03/02 12:59:41;;;;;;;8.20;7.60;;;;;;;23.66;24.44;94904.31;6135619;28;104019;-54
2022/03/02 13:02:48;;;;;;;7.37;6.77;;;;;;;23.61;24.31;94907.16;6135853;28;103266;-54
2022/03/02 13:05:55;;;;;;;7.10;6.60;;;;;;;23.63;24.96;94904.19;6130403;28;103957;-55
2022/03/02 13:09:09;;;;;;;7.83;7.33;;;;;;;23.61;24.59;94898.38;6136063;28;103385;-55
2022/03/02 13:12:31;;;;;;;7.23;6.63;;;;;;;23.59;25.02;94898.69;6136553;28;103382;-55
2022/03/02 13:15:36;;;;;;;7.43;6.93;;;;;;;23.59;24.95;94897.91;6129978;28;103036;-54
2022/03/02 13:18:38;;;;;;;7.10;6.60;;;;;;;23.56;24.59;94896.63;6135152;28;102986;-55
2022/03/02 13:21:40;;;;;;;7.27;6.77;;;;;;;23.55;24.99;94892.38;6116922;28;103004;-55
2022/03/02 13:24:45;;;;;;;6.77;6.37;;;;;;;23.54;24.91;94890.81;6135537;28;103344;-55
2022/03/02 13:28:05;;;;;;;7.20;6.67;;;;;;;23.54;24.53;94882.81;6129632;28;105082;-55
2022/03/02 13:31:09;;;;;;;7.30;6.70;;;;;;;23.49;24.68;94879.50;6135646;28;103169;-55
2022/03/02 13:34:16;;;;;;;7.27;6.77;;;;;;;23.50;24.47;94884.50;6135015;28;103323;-55
2022/03/02 13:37:18;;;;;;;6.40;5.90;;;;;;;23.47;24.78;94876.34;6113240;28;104005;-55
2022/03/02 13:40:32;;;;;;;7.20;6.60;;;;;;;23.47;24.50;94877.13;6134365;28;103246;-55
2022/03/02 13:43:34;;;;;;;7.50;6.90;;;;;;;23.46;24.79;94880.91;6134521;28;104339;-55
2022/03/02 13:46:36;;;;;;;7.00;6.50;;;;;;;23.46;24.65;94875.56;6134811;28;102880;-55
2022/03/02 13:49:47;;;;;;;6.77;6.30;;;;;;;23.47;24.78;94874.47;6146484;28;103316;-55
2022/03/02 13:52:59;;;;;;;7.40;6.87;;;;;;;23.45;24.84;94871.34;6159536;28;103188;-55
2022/03/02 13:56:07;;;;;;;7.03;6.53;;;;;;;23.45;24.50;94871.34;6159849;28;104004;-55
2022/03/02 13:59:17;;;;;;;6.97;6.40;;;;;;;23.46;24.47;94872.13;6158881;28;104057;-55
2022/03/02 14:02:24;;;;;;;7.60;7.10;;;;;;;23.47;24.49;94865.69;6163654;28;103159;-55
2022/03/02 14:05:27;;;;;;;7.03;6.53;;;;;;;23.46;24.58;94861.47;6163098;28;103023;-55